Terminal Aerodrome Forecast
Issued by NWS Jacksonville, FL

Home | Current Version | Previous Version | Text Only | Print | Product List | Glossary On
Versions: 1 2 3 4 5 6 7 8 9 10 11 12 13 14 15 16 17 18 19 20 21
000
FTUS42 KJAX 301120
TAFSSI
TAF
KSSI 301120Z 3012/3112 06006KT P6SM SCT020 SCT040 OVC100
     FM301400 09010KT P6SM VCSH SCT020 BKN040 OVC200
     FM301700 10012G18KT 6SM -RA BR VCTS SCT015 BKN035CB
     FM310000 11012G18KT 6SM -RA BR SCT015 BKN030 OVC060=

USA.gov is the U.S. government's official web portal to all federal, state and local government web resources and services.